createdAt,value
2017-11-11T00:00:38.592Z,1023.4
2017-11-11T00:01:38.580Z,1023.43
2017-11-11T00:02:38.567Z,1023.49
2017-11-11T00:03:38.561Z,1023.45
2017-11-11T00:04:38.545Z,1023.45
2017-11-11T00:05:38.533Z,1023.47
2017-11-11T00:06:38.521Z,1023.43
2017-11-11T00:07:38.509Z,1023.47
2017-11-11T00:08:38.499Z,1023.44
2017-11-11T00:09:38.487Z,1023.48
2017-11-11T00:10:38.473Z,1023.45
2017-11-11T00:11:38.464Z,1023.46
2017-11-11T00:12:38.452Z,1023.48
2017-11-11T00:13:38.439Z,1023.48
2017-11-11T00:14:38.427Z,1023.51
2017-11-11T00:15:38.416Z,1023.5
2017-11-11T00:16:38.405Z,1023.48
2017-11-11T00:17:38.392Z,1023.51
2017-11-11T00:18:38.381Z,1023.53
2017-11-11T00:19:38.371Z,1023.54
2017-11-11T00:20:38.359Z,1023.51
2017-11-11T00:21:38.348Z,1023.5
2017-11-11T00:22:38.334Z,1023.47
2017-11-11T00:23:38.324Z,1023.5
2017-11-11T00:24:38.313Z,1023.51
2017-11-11T00:25:38.299Z,1023.47
2017-11-11T00:26:38.288Z,1023.55
2017-11-11T00:27:38.276Z,1023.55
2017-11-11T00:28:38.265Z,1023.57
2017-11-11T00:29:38.253Z,1023.56
2017-11-11T00:30:38.243Z,1023.56
2017-11-11T00:31:38.231Z,1023.63
2017-11-11T00:32:38.226Z,1023.61
2017-11-11T00:33:38.207Z,1023.6
2017-11-11T00:34:38.196Z,1023.57
2017-11-11T00:35:38.185Z,1023.58
2017-11-11T00:36:38.171Z,1023.58
2017-11-11T00:37:38.161Z,1023.56
2017-11-11T00:38:38.150Z,1023.52
2017-11-11T00:39:38.138Z,1023.57
2017-11-11T00:40:38.126Z,1023.57
2017-11-11T00:41:38.114Z,1023.6
2017-11-11T00:42:38.104Z,1023.54
2017-11-11T00:43:38.091Z,1023.6
2017-11-11T00:44:38.078Z,1023.56
2017-11-11T00:45:38.068Z,1023.58
2017-11-11T00:46:38.055Z,1023.62
2017-11-11T00:47:38.044Z,1023.57
2017-11-11T00:48:38.032Z,1023.55
2017-11-11T00:49:38.021Z,1023.55
2017-11-11T00:50:38.009Z,1023.58
2017-11-11T00:51:37.998Z,1023.6
2017-11-11T00:52:37.987Z,1023.57
2017-11-11T00:53:37.977Z,1023.54
2017-11-11T00:54:37.963Z,1023.55
2017-11-11T00:55:37.957Z,1023.58
2017-11-11T00:56:37.942Z,1023.51
2017-11-11T00:57:37.929Z,1023.49
2017-11-11T00:58:37.917Z,1023.54
2017-11-11T00:59:37.907Z,1023.53
2017-11-11T01:00:37.896Z,1023.55
2017-11-11T01:01:37.882Z,1023.56
2017-11-11T01:02:37.871Z,1023.6
2017-11-11T01:03:37.859Z,1023.59
2017-11-11T01:04:37.849Z,1023.62
2017-11-11T01:05:37.836Z,1023.59
2017-11-11T01:06:37.824Z,1023.67
2017-11-11T01:07:37.813Z,1023.73
2017-11-11T01:08:37.801Z,1023.68
2017-11-11T01:09:37.789Z,1023.65
2017-11-11T01:10:37.779Z,1023.65
2017-11-11T01:11:37.768Z,1023.65
2017-11-11T01:12:37.757Z,1023.64
2017-11-11T01:13:37.744Z,1023.57
2017-11-11T01:14:37.733Z,1023.53
2017-11-11T01:15:37.722Z,1023.48
2017-11-11T01:16:37.710Z,1023.52
2017-11-11T01:17:37.699Z,1023.53
2017-11-11T01:18:37.688Z,1023.52
2017-11-11T01:19:37.675Z,1023.54
2017-11-11T01:20:37.663Z,1023.52
2017-11-11T01:21:37.651Z,1023.56
2017-11-11T01:22:37.645Z,1023.59
2017-11-11T01:23:37.628Z,1023.52
2017-11-11T01:24:37.617Z,1023.55
2017-11-11T01:25:37.606Z,1023.56
2017-11-11T01:26:37.595Z,1023.55
2017-11-11T01:27:37.582Z,1023.52
2017-11-11T01:28:37.571Z,1023.45
2017-11-11T01:29:37.561Z,1023.52
2017-11-11T01:30:37.546Z,1023.51
2017-11-11T01:31:37.536Z,1023.53
2017-11-11T01:32:37.525Z,1023.49
2017-11-11T01:33:37.513Z,1023.56
2017-11-11T01:34:37.507Z,1023.5
2017-11-11T01:35:37.500Z,1023.5
2017-11-11T01:36:37.478Z,1023.52
2017-11-11T01:37:37.468Z,1023.57
2017-11-11T01:38:37.460Z,1023.5
2017-11-11T01:39:37.450Z,1023.53
2017-11-11T01:40:37.444Z,1023.48
2017-11-11T01:41:37.420Z,1023.5
2017-11-11T01:42:37.410Z,1023.49
2017-11-11T01:43:37.398Z,1023.47
2017-11-11T01:44:37.400Z,1023.45
2017-11-11T01:45:37.375Z,1023.45
2017-11-11T01:46:37.363Z,1023.4
2017-11-11T01:47:37.353Z,1023.5
2017-11-11T01:48:37.348Z,1023.44
2017-11-11T01:49:37.330Z,1023.43
2017-11-11T01:50:37.320Z,1023.45
2017-11-11T01:51:37.313Z,1023.45
2017-11-11T01:52:37.295Z,1023.5
2017-11-11T01:53:37.291Z,1023.46
2017-11-11T01:54:37.276Z,1023.46
2017-11-11T01:55:37.261Z,1023.45
2017-11-11T01:56:37.249Z,1023.42
2017-11-11T01:57:37.244Z,1023.43
2017-11-11T01:58:37.227Z,1023.44
2017-11-11T01:59:37.214Z,1023.35
2017-11-11T02:00:37.203Z,1023.41
2017-11-11T02:01:37.196Z,1023.38
2017-11-11T02:02:37.180Z,1023.38
2017-11-11T02:03:37.168Z,1023.5
2017-11-11T02:04:37.155Z,1023.48
2017-11-11T02:05:37.146Z,1023.42
2017-11-11T02:06:37.133Z,1023.43
2017-11-11T02:07:37.123Z,1023.4
2017-11-11T02:08:37.111Z,1023.39
2017-11-11T02:09:37.099Z,1023.43
2017-11-11T02:10:37.095Z,1023.37
2017-11-11T02:11:37.075Z,1023.38
2017-11-11T02:12:37.064Z,1023.35
2017-11-11T02:13:37.053Z,1023.34
2017-11-11T02:14:37.041Z,1023.33
2017-11-11T02:15:37.030Z,1023.38
2017-11-11T02:16:37.018Z,1023.34
2017-11-11T02:17:37.007Z,1023.4
2017-11-11T02:18:36.997Z,1023.39
2017-11-11T02:19:36.984Z,1023.31
2017-11-11T02:20:36.972Z,1023.3
2017-11-11T02:21:36.967Z,1023.31
2017-11-11T02:22:36.969Z,1023.36
2017-11-11T02:23:36.936Z,1023.38
2017-11-11T02:24:36.928Z,1023.36
2017-11-11T02:25:36.914Z,1023.39
2017-11-11T02:26:36.902Z,1023.34
2017-11-11T02:27:36.893Z,1023.37
2017-11-11T02:28:36.880Z,1023.41
2017-11-11T02:29:36.871Z,1023.36
2017-11-11T02:30:36.856Z,1023.35
2017-11-11T02:31:36.846Z,1023.36
2017-11-11T02:32:36.835Z,1023.24
2017-11-11T02:33:36.823Z,1023.26
2017-11-11T02:34:36.811Z,1023.26
2017-11-11T02:35:36.800Z,1023.23
2017-11-11T02:36:36.789Z,1023.23
2017-11-11T02:37:36.777Z,1023.28
2017-11-11T02:38:36.764Z,1023.22
2017-11-11T02:39:36.755Z,1023.23
2017-11-11T02:40:36.743Z,1023.15
2017-11-11T02:41:36.729Z,1023.22
2017-11-11T02:42:36.721Z,1023.2
2017-11-11T02:43:36.707Z,1023.24
2017-11-11T02:44:36.697Z,1023.22
2017-11-11T02:45:36.683Z,1023.23
2017-11-11T02:46:36.674Z,1023.33
2017-11-11T02:47:36.661Z,1023.22
2017-11-11T02:48:36.650Z,1023.23
2017-11-11T02:49:36.639Z,1023.21
2017-11-11T02:50:36.638Z,1023.29
2017-11-11T02:51:36.615Z,1023.3
2017-11-11T02:52:36.605Z,1023.29
2017-11-11T02:53:36.594Z,1023.26
2017-11-11T02:54:36.582Z,1023.27
2017-11-11T02:55:36.573Z,1023.29
2017-11-11T02:56:36.557Z,1023.31
2017-11-11T02:57:36.548Z,1023.26
2017-11-11T02:58:36.542Z,1023.25
2017-11-11T02:59:36.523Z,1023.21
2017-11-11T03:00:36.517Z,1023.15
2017-11-11T03:01:36.500Z,1023.19
2017-11-11T03:02:36.487Z,1023.16
2017-11-11T03:03:36.477Z,1023.17
2017-11-11T03:04:36.466Z,1023.11
2017-11-11T03:05:36.453Z,1023.09
2017-11-11T03:06:36.452Z,1023.18
2017-11-11T03:07:36.431Z,1023.21
2017-11-11T03:08:36.421Z,1023.22
2017-11-11T03:09:36.407Z,1023.23
2017-11-11T03:10:36.417Z,1023.24
2017-11-11T03:11:36.386Z,1023.17
2017-11-11T03:12:36.379Z,1023.08
2017-11-11T03:13:36.361Z,1023.13
2017-11-11T03:14:36.351Z,1023.1
2017-11-11T03:15:36.340Z,1023.11
2017-11-11T03:16:36.330Z,1023.09
2017-11-11T03:17:36.322Z,1023.13
2017-11-11T03:18:36.304Z,1023.17
2017-11-11T03:19:36.293Z,1023.18
2017-11-11T03:20:36.280Z,1023.13
2017-11-11T03:21:36.269Z,1023.12
2017-11-11T03:22:36.262Z,1023.13
2017-11-11T03:23:36.246Z,1023.12
2017-11-11T03:24:36.233Z,1023.06
2017-11-11T03:25:36.223Z,1023.09
2017-11-11T03:26:36.211Z,1023.08
2017-11-11T03:27:36.203Z,1023.11
2017-11-11T03:28:36.203Z,1023.04
2017-11-11T03:29:36.177Z,1023.08
2017-11-11T03:30:36.167Z,1023.05
2017-11-11T03:31:36.154Z,1023.07
2017-11-11T03:32:36.143Z,1023.09
2017-11-11T03:33:36.131Z,1023.07
2017-11-11T03:34:36.119Z,1023.01
2017-11-11T03:35:36.108Z,1023.09
2017-11-11T03:36:36.101Z,1023.08
2017-11-11T03:37:36.085Z,1023.12
2017-11-11T03:38:36.073Z,1023.11
2017-11-11T03:39:36.061Z,1023.08
2017-11-11T03:40:36.050Z,1023.04
2017-11-11T03:41:36.039Z,1023.12
2017-11-11T03:42:36.028Z,1023.07
2017-11-11T03:43:36.015Z,1023.04
2017-11-11T03:44:36.004Z,1023.06
2017-11-11T03:45:35.994Z,1023.06
2017-11-11T03:46:35.986Z,1023
2017-11-11T03:47:35.970Z,1023.02
2017-11-11T03:48:35.961Z,1022.99
2017-11-11T03:49:35.946Z,1022.98
2017-11-11T03:50:35.935Z,1022.94
2017-11-11T03:51:35.924Z,1022.9
2017-11-11T03:52:35.913Z,1022.9
2017-11-11T03:53:35.903Z,1022.93
2017-11-11T03:54:35.888Z,1022.92
2017-11-11T03:55:35.876Z,1022.95
2017-11-11T03:56:35.865Z,1022.93
2017-11-11T03:57:35.854Z,1022.89
2017-11-11T03:58:35.841Z,1022.88
2017-11-11T03:59:35.832Z,1022.96
2017-11-11T04:00:35.819Z,1022.9
2017-11-11T04:01:35.807Z,1022.93
2017-11-11T04:02:35.795Z,1022.89
2017-11-11T04:03:35.784Z,1022.94
2017-11-11T04:04:35.773Z,1022.86
2017-11-11T04:05:35.761Z,1022.92
2017-11-11T04:06:35.750Z,1022.92
2017-11-11T04:07:35.738Z,1022.96
2017-11-11T04:08:35.727Z,1022.94
2017-11-11T04:09:35.718Z,1022.99
2017-11-11T04:10:35.703Z,1022.97
2017-11-11T04:11:35.691Z,1022.98
2017-11-11T04:12:35.681Z,1023.07
2017-11-11T04:13:35.670Z,1023.1
2017-11-11T04:14:35.658Z,1023.09
2017-11-11T04:15:35.647Z,1023.1
2017-11-11T04:16:35.636Z,1023.08
2017-11-11T04:17:35.623Z,1023.12
2017-11-11T04:18:35.611Z,1023.11
2017-11-11T04:19:35.598Z,1023.06
2017-11-11T04:20:35.587Z,1023.04
2017-11-11T04:21:35.607Z,1023.03
2017-11-11T04:22:35.564Z,1023.04
2017-11-11T04:23:35.554Z,1023.16
2017-11-11T04:24:35.542Z,1023.07
2017-11-11T04:25:35.530Z,1023.04
2017-11-11T04:26:35.519Z,1023.02
2017-11-11T04:27:35.510Z,1023.03
2017-11-11T04:28:35.495Z,1023.05
2017-11-11T04:29:35.483Z,1023.1
2017-11-11T04:30:35.471Z,1023.1
2017-11-11T04:31:35.459Z,1023.13
2017-11-11T04:32:35.449Z,1023.1
2017-11-11T04:33:35.435Z,1023.08
2017-11-11T04:34:35.426Z,1023.07
2017-11-11T04:35:35.412Z,1023.1
2017-11-11T04:36:35.399Z,1023.09
2017-11-11T04:37:35.388Z,1023.06
2017-11-11T04:38:35.378Z,1023.08
2017-11-11T04:39:35.366Z,1023.07
2017-11-11T04:40:35.354Z,1023.01
2017-11-11T04:41:35.340Z,1023
2017-11-11T04:42:35.330Z,1023
2017-11-11T04:43:35.319Z,1022.91
2017-11-11T04:44:35.306Z,1022.98
2017-11-11T04:45:35.295Z,1022.96
2017-11-11T04:46:35.294Z,1022.98
2017-11-11T04:47:35.272Z,1022.93
2017-11-11T04:48:35.259Z,1022.92
2017-11-11T04:49:35.249Z,1022.94
2017-11-11T04:50:35.236Z,1022.94
2017-11-11T04:51:35.223Z,1022.99
2017-11-11T04:52:35.214Z,1022.99
2017-11-11T04:53:35.200Z,1022.95
2017-11-11T04:54:35.191Z,1022.95
2017-11-11T04:55:35.176Z,1022.99
2017-11-11T04:56:35.166Z,1022.97
2017-11-11T04:57:35.154Z,1022.98
2017-11-11T04:58:35.142Z,1023.05
2017-11-11T04:59:35.131Z,1023.06
2017-11-11T05:00:35.120Z,1022.99
2017-11-11T05:01:35.107Z,1022.98
2017-11-11T05:02:35.097Z,1023.01
2017-11-11T05:03:35.083Z,1022.98
2017-11-11T05:04:35.073Z,1022.98
2017-11-11T05:05:35.062Z,1022.94
2017-11-11T05:06:35.049Z,1022.94
2017-11-11T05:07:35.038Z,1022.98
2017-11-11T05:08:35.025Z,1022.94
2017-11-11T05:09:35.013Z,1022.96
2017-11-11T05:10:35.003Z,1022.97
2017-11-11T05:11:34.990Z,1022.92
2017-11-11T05:12:34.979Z,1022.93
2017-11-11T05:13:34.966Z,1022.87
2017-11-11T05:14:34.955Z,1022.83
2017-11-11T05:15:34.949Z,1022.81
2017-11-11T05:16:34.933Z,1022.84
2017-11-11T05:17:34.922Z,1022.75
2017-11-11T05:18:34.908Z,1022.79
2017-11-11T05:19:34.898Z,1022.79
2017-11-11T05:20:34.883Z,1022.78
2017-11-11T05:21:34.873Z,1022.78
2017-11-11T05:22:34.862Z,1022.81
2017-11-11T05:23:34.851Z,1022.83
2017-11-11T05:24:34.837Z,1022.73
2017-11-11T05:25:34.827Z,1022.77
2017-11-11T05:26:34.816Z,1022.78
2017-11-11T05:27:34.806Z,1022.77
2017-11-11T05:28:34.792Z,1022.78
2017-11-11T05:29:34.782Z,1022.79
2017-11-11T05:30:34.771Z,1022.82
2017-11-11T05:31:34.759Z,1022.84
2017-11-11T05:32:34.748Z,1022.81
2017-11-11T05:33:34.736Z,1022.8
2017-11-11T05:34:34.725Z,1022.81
2017-11-11T05:35:34.713Z,1022.85
2017-11-11T05:36:34.701Z,1022.79
2017-11-11T05:37:34.689Z,1022.8
2017-11-11T05:38:34.678Z,1022.79
2017-11-11T05:39:34.667Z,1022.82
2017-11-11T05:40:34.656Z,1022.79
2017-11-11T05:41:34.649Z,1022.81
2017-11-11T05:42:34.632Z,1022.8
2017-11-11T05:43:34.621Z,1022.82
2017-11-11T05:44:34.613Z,1022.82
2017-11-11T05:45:34.606Z,1022.86
2017-11-11T05:46:34.589Z,1022.82
2017-11-11T05:47:34.585Z,1022.82
2017-11-11T05:48:34.564Z,1022.81
2017-11-11T05:49:34.553Z,1022.78
2017-11-11T05:50:34.542Z,1022.76
2017-11-11T05:51:34.529Z,1022.79
2017-11-11T05:52:34.518Z,1022.78
2017-11-11T05:53:34.510Z,1022.78
2017-11-11T05:54:34.496Z,1022.78
2017-11-11T05:55:34.485Z,1022.76
2017-11-11T05:56:34.486Z,1022.73
2017-11-11T05:57:34.460Z,1022.78
2017-11-11T05:58:34.450Z,1022.75
2017-11-11T05:59:34.439Z,1022.82
2017-11-11T06:00:34.427Z,1022.81
2017-11-11T06:01:34.416Z,1022.79
2017-11-11T06:02:34.426Z,1022.82
2017-11-11T06:03:34.394Z,1022.66
2017-11-11T06:04:34.380Z,1022.81
2017-11-11T06:05:34.371Z,1022.8
2017-11-11T06:06:34.360Z,1022.73
2017-11-11T06:07:34.350Z,1022.78
2017-11-11T06:08:34.337Z,1022.75
2017-11-11T06:09:34.325Z,1022.74
2017-11-11T06:10:34.315Z,1022.8
2017-11-11T06:11:34.301Z,1022.72
2017-11-11T06:12:34.291Z,1022.72
2017-11-11T06:13:34.283Z,1022.71
2017-11-11T06:14:34.267Z,1022.7
2017-11-11T06:15:34.261Z,1022.66
2017-11-11T06:16:34.244Z,1022.7
2017-11-11T06:17:34.233Z,1022.72
2017-11-11T06:18:34.224Z,1022.66
2017-11-11T06:19:34.211Z,1022.69
2017-11-11T06:20:34.200Z,1022.7
2017-11-11T06:21:34.189Z,1022.69
2017-11-11T06:22:34.175Z,1022.66
2017-11-11T06:23:34.169Z,1022.64
2017-11-11T06:24:34.154Z,1022.6
2017-11-11T06:25:34.142Z,1022.64
2017-11-11T06:26:34.131Z,1022.59
2017-11-11T06:27:34.119Z,1022.57
2017-11-11T06:28:34.109Z,1022.6
2017-11-11T06:29:34.097Z,1022.53
2017-11-11T06:30:34.085Z,1022.63
2017-11-11T06:31:34.077Z,1022.62
2017-11-11T06:32:34.062Z,1022.66
2017-11-11T06:33:34.049Z,1022.69
2017-11-11T06:34:34.039Z,1022.7
2017-11-11T06:35:34.027Z,1022.73
2017-11-11T06:36:34.018Z,1022.7
2017-11-11T06:37:34.004Z,1022.67
2017-11-11T06:38:33.993Z,1022.72
2017-11-11T06:39:33.983Z,1022.75
2017-11-11T06:40:33.972Z,1022.77
2017-11-11T06:41:33.961Z,1022.77
2017-11-11T06:42:33.950Z,1022.77
2017-11-11T06:43:33.938Z,1022.8
2017-11-11T06:44:33.925Z,1022.79
2017-11-11T06:45:33.917Z,1022.81
2017-11-11T06:46:33.904Z,1022.81
2017-11-11T06:47:33.891Z,1022.77
2017-11-11T06:48:33.882Z,1022.81
2017-11-11T06:49:33.870Z,1022.79
2017-11-11T06:50:33.859Z,1022.76
2017-11-11T06:51:33.846Z,1022.73
2017-11-11T06:52:33.834Z,1022.7
2017-11-11T06:53:33.827Z,1022.69
2017-11-11T06:54:33.812Z,1022.75
2017-11-11T06:55:33.801Z,1022.78
2017-11-11T06:56:33.789Z,1022.73
2017-11-11T06:57:33.778Z,1022.75
2017-11-11T06:58:33.768Z,1022.7
2017-11-11T06:59:33.755Z,1022.68
2017-11-11T07:00:33.743Z,1022.69
2017-11-11T07:01:33.731Z,1022.74
2017-11-11T07:02:33.721Z,1022.73
2017-11-11T07:03:33.709Z,1022.74
2017-11-11T07:04:33.699Z,1022.72
2017-11-11T07:05:33.711Z,1022.75
2017-11-11T07:06:33.675Z,1022.76
2017-11-11T07:07:33.665Z,1022.72
2017-11-11T07:08:33.653Z,1022.71
2017-11-11T07:09:33.642Z,1022.73
2017-11-11T07:10:33.637Z,1022.71
2017-11-11T07:11:33.619Z,1022.72
2017-11-11T07:12:33.608Z,1022.77
2017-11-11T07:13:33.596Z,1022.74
2017-11-11T07:14:33.584Z,1022.82
2017-11-11T07:15:33.576Z,1022.79
2017-11-11T07:16:33.562Z,1022.79
2017-11-11T07:17:33.549Z,1022.78
2017-11-11T07:18:33.539Z,1022.79
2017-11-11T07:19:33.529Z,1022.88
2017-11-11T07:20:33.517Z,1022.86
2017-11-11T07:21:33.508Z,1022.8
2017-11-11T07:22:33.494Z,1022.79
2017-11-11T07:23:33.482Z,1022.78
2017-11-11T07:24:33.471Z,1022.77
2017-11-11T07:25:33.460Z,1022.73
2017-11-11T07:26:33.447Z,1022.74
2017-11-11T07:27:33.437Z,1022.76
2017-11-11T07:28:33.426Z,1022.72
2017-11-11T07:29:33.414Z,1022.72
2017-11-11T07:30:33.403Z,1022.74
2017-11-11T07:31:33.391Z,1022.68
2017-11-11T07:32:33.378Z,1022.67
2017-11-11T07:33:33.368Z,1022.66
2017-11-11T07:34:33.356Z,1022.59
2017-11-11T07:35:33.354Z,1022.56
2017-11-11T07:36:33.344Z,1022.56
2017-11-11T07:37:33.328Z,1022.47
2017-11-11T07:38:33.314Z,1022.51
2017-11-11T07:39:33.302Z,1022.54
2017-11-11T07:40:33.289Z,1022.51
2017-11-11T07:41:33.280Z,1022.55
2017-11-11T07:42:33.267Z,1022.53
2017-11-11T07:43:33.270Z,1022.47
2017-11-11T07:44:33.244Z,1022.44
2017-11-11T07:45:33.233Z,1022.36
2017-11-11T07:46:33.220Z,1022.24
2017-11-11T07:47:33.214Z,1022.14
2017-11-11T07:48:33.200Z,1022.07
2017-11-11T07:49:33.188Z,1022.05
2017-11-11T07:50:33.177Z,1021.98
2017-11-11T07:51:33.165Z,1021.95
2017-11-11T07:52:33.163Z,1021.97
2017-11-11T07:53:33.143Z,1021.91
2017-11-11T07:54:33.131Z,1021.88
2017-11-11T07:55:33.121Z,1021.76
2017-11-11T07:56:33.117Z,1021.59
2017-11-11T07:57:33.100Z,1021.35
2017-11-11T07:58:33.096Z,1021.14
2017-11-11T07:59:33.079Z,1021.09
2017-11-11T08:00:33.067Z,1020.92
2017-11-11T08:01:33.056Z,1020.75
2017-11-11T08:02:33.044Z,1020.64
2017-11-11T08:03:33.035Z,1020.56
2017-11-11T08:04:33.025Z,1020.44
2017-11-11T08:05:33.013Z,1020.39
2017-11-11T08:06:33.004Z,1020.32
2017-11-11T08:07:32.996Z,1020.3
2017-11-11T08:08:32.984Z,1020.32
2017-11-11T08:09:32.974Z,1020.42
2017-11-11T08:10:32.971Z,1020.5
2017-11-11T08:11:32.956Z,1020.47
2017-11-11T08:12:32.944Z,1020.36
2017-11-11T08:13:32.936Z,1020.27
2017-11-11T08:14:32.927Z,1020.21
2017-11-11T08:15:32.917Z,1020.28
2017-11-11T08:16:32.906Z,1020.36
2017-11-11T08:17:32.896Z,1020.52
2017-11-11T08:18:32.888Z,1020.51
2017-11-11T08:19:32.877Z,1020.61
2017-11-11T08:20:32.869Z,1020.71
2017-11-11T08:21:32.859Z,1020.73
2017-11-11T08:22:32.849Z,1020.76
2017-11-11T08:23:32.840Z,1020.76
2017-11-11T08:24:32.829Z,1020.74
2017-11-11T08:25:32.821Z,1020.84
2017-11-11T08:26:32.812Z,1020.83
2017-11-11T08:27:32.800Z,1020.87
2017-11-11T08:28:32.792Z,1020.89
2017-11-11T08:29:32.782Z,1020.87
2017-11-11T08:30:32.770Z,1020.91
2017-11-11T08:31:32.761Z,1020.92
2017-11-11T08:32:32.766Z,1020.92
2017-11-11T08:33:32.743Z,1020.96
2017-11-11T08:34:32.734Z,1020.94
2017-11-11T08:35:32.722Z,1020.88
2017-11-11T08:36:32.713Z,1020.86
2017-11-11T08:37:32.704Z,1020.77
2017-11-11T08:38:32.735Z,1020.79
2017-11-11T08:39:32.683Z,1020.73
2017-11-11T08:40:32.674Z,1020.73
2017-11-11T08:41:32.665Z,1020.75
2017-11-11T08:42:32.654Z,1020.75
2017-11-11T08:43:32.652Z,1020.61
2017-11-11T08:44:32.635Z,1020.57
2017-11-11T08:45:32.626Z,1020.56
2017-11-11T08:46:32.615Z,1020.51
2017-11-11T08:47:32.606Z,1020.52
2017-11-11T08:48:32.597Z,1020.54
2017-11-11T08:49:32.586Z,1020.52
2017-11-11T08:50:32.577Z,1020.46
2017-11-11T08:51:32.566Z,1020.39
2017-11-11T08:52:32.557Z,1020.38
2017-11-11T08:53:32.546Z,1020.42
2017-11-11T08:54:32.536Z,1020.38
2017-11-11T08:55:32.528Z,1020.4
2017-11-11T08:56:32.517Z,1020.38
2017-11-11T08:57:32.509Z,1020.4
2017-11-11T08:58:32.499Z,1020.3
2017-11-11T08:59:32.492Z,1020.23
2017-11-11T09:00:32.478Z,1020.14
2017-11-11T09:01:32.469Z,1020.12
2017-11-11T09:02:32.460Z,1020.05
2017-11-11T09:03:32.449Z,1020
2017-11-11T09:04:32.440Z,1019.93
2017-11-11T09:05:32.438Z,1019.75
2017-11-11T09:06:32.421Z,1019.67
2017-11-11T09:07:32.413Z,1019.57
2017-11-11T09:08:32.402Z,1019.56
2017-11-11T09:09:32.398Z,1019.62
2017-11-11T09:10:32.385Z,1019.65
2017-11-11T09:11:32.377Z,1019.66
2017-11-11T09:12:32.367Z,1019.75
2017-11-11T09:13:32.358Z,1019.78
2017-11-11T09:14:32.368Z,1019.9
2017-11-11T09:15:32.341Z,1019.93
2017-11-11T09:16:32.331Z,1019.97
2017-11-11T09:17:32.321Z,1019.98
2017-11-11T09:18:32.311Z,1019.96
2017-11-11T09:19:32.305Z,1019.93
2017-11-11T09:20:32.295Z,1019.87
2017-11-11T09:21:32.285Z,1019.77
2017-11-11T09:22:32.277Z,1019.68
2017-11-11T09:23:32.266Z,1019.5
2017-11-11T09:24:32.258Z,1019.46
2017-11-11T09:25:32.249Z,1019.46
2017-11-11T09:26:32.246Z,1019.51
2017-11-11T09:27:32.232Z,1019.51
2017-11-11T09:28:32.223Z,1019.48
2017-11-11T09:29:32.213Z,1019.49
2017-11-11T09:30:32.204Z,1019.44
2017-11-11T09:31:32.197Z,1019.35
2017-11-11T09:32:32.186Z,1019.26
2017-11-11T09:33:32.178Z,1019.21
2017-11-11T09:34:32.168Z,1019.28
2017-11-11T09:35:32.159Z,1019.31
2017-11-11T09:36:32.159Z,1019.33
2017-11-11T09:37:32.142Z,1019.38
2017-11-11T09:38:32.143Z,1019.44
2017-11-11T09:39:32.126Z,1019.47
2017-11-11T09:40:32.116Z,1019.49
2017-11-11T09:41:32.106Z,1019.52
2017-11-11T09:42:32.102Z,1019.46
2017-11-11T09:43:32.089Z,1019.42
2017-11-11T09:44:32.081Z,1019.55
2017-11-11T09:45:32.071Z,1019.63
2017-11-11T09:46:32.064Z,1019.56
2017-11-11T09:47:32.055Z,1019.71
2017-11-11T09:48:32.046Z,1019.69
2017-11-11T09:49:32.037Z,1019.68
2017-11-11T09:50:32.028Z,1019.73
2017-11-11T09:51:32.020Z,1019.79
2017-11-11T09:52:32.010Z,1019.76
2017-11-11T09:53:32.002Z,1019.78
2017-11-11T09:54:31.991Z,1019.73
2017-11-11T09:55:31.983Z,1019.67
2017-11-11T09:56:31.976Z,1019.69
2017-11-11T09:57:31.965Z,1019.74
2017-11-11T09:58:31.957Z,1019.7
2017-11-11T09:59:31.947Z,1019.67
2017-11-11T10:00:31.938Z,1019.59
2017-11-11T10:01:31.935Z,1019.59
2017-11-11T10:02:31.920Z,1019.63
2017-11-11T10:03:31.912Z,1019.7
2017-11-11T10:04:31.903Z,1019.65
2017-11-11T10:05:31.893Z,1019.64
2017-11-11T10:06:31.884Z,1019.63
2017-11-11T10:07:31.874Z,1019.61
2017-11-11T10:08:31.866Z,1019.58
2017-11-11T10:09:31.857Z,1019.62
2017-11-11T10:10:31.849Z,1019.62
2017-11-11T10:11:31.839Z,1019.7
2017-11-11T10:12:31.836Z,1019.71
2017-11-11T10:13:31.820Z,1019.77
2017-11-11T10:14:31.811Z,1019.82
2017-11-11T10:15:31.803Z,1019.82
2017-11-11T10:16:31.792Z,1019.83
2017-11-11T10:17:31.800Z,1019.72
2017-11-11T10:18:31.788Z,1019.61
2017-11-11T10:19:31.768Z,1019.54
2017-11-11T10:20:31.767Z,1019.54
2017-11-11T10:21:31.753Z,1019.49
2017-11-11T10:22:31.739Z,1019.44
2017-11-11T10:23:31.729Z,1019.29
2017-11-11T10:24:31.719Z,1019.3
2017-11-11T10:25:31.710Z,1019.2
2017-11-11T10:26:31.702Z,1019.25
2017-11-11T10:27:31.698Z,1019.19
2017-11-11T10:28:31.689Z,1019.18
2017-11-11T10:29:31.675Z,1019.07
2017-11-11T10:30:31.668Z,1018.97
2017-11-11T10:31:31.657Z,1018.93
2017-11-11T10:32:31.648Z,1018.93
2017-11-11T10:33:31.642Z,1018.85
2017-11-11T10:34:31.631Z,1018.89
2017-11-11T10:35:31.622Z,1019.01
2017-11-11T10:36:31.613Z,1019
2017-11-11T10:37:31.619Z,1019.03
2017-11-11T10:38:31.593Z,1018.95
2017-11-11T10:39:31.587Z,1018.85
2017-11-11T10:40:31.578Z,1018.85
2017-11-11T10:41:31.569Z,1018.89
2017-11-11T10:42:31.571Z,1018.87
2017-11-11T10:43:31.551Z,1018.85
2017-11-11T10:44:31.542Z,1018.87
2017-11-11T10:45:31.534Z,1018.89
2017-11-11T10:46:31.524Z,1018.87
2017-11-11T10:47:31.517Z,1018.99
2017-11-11T10:48:31.508Z,1019.03
2017-11-11T10:49:31.499Z,1019.06
2017-11-11T10:50:31.500Z,1019.12
2017-11-11T10:51:31.483Z,1019.25
2017-11-11T10:52:31.473Z,1019.31
2017-11-11T10:53:31.463Z,1019.41
2017-11-11T10:54:31.458Z,1019.46
2017-11-11T10:55:31.448Z,1019.54
2017-11-11T10:56:31.451Z,1019.56
2017-11-11T10:57:31.430Z,1019.65
2017-11-11T10:58:31.421Z,1019.65
2017-11-11T10:59:31.413Z,1019.62
2017-11-11T11:00:31.405Z,1019.58
2017-11-11T11:01:31.394Z,1019.66
2017-11-11T11:02:31.385Z,1019.69
2017-11-11T11:03:31.377Z,1019.73
2017-11-11T11:04:31.365Z,1019.73
2017-11-11T11:05:31.358Z,1019.71
2017-11-11T11:06:31.353Z,1019.69
2017-11-11T11:07:31.338Z,1019.64
2017-11-11T11:08:31.330Z,1019.57
2017-11-11T11:09:31.321Z,1019.53
2017-11-11T11:10:31.313Z,1019.47
2017-11-11T11:11:31.301Z,1019.39
2017-11-11T11:12:31.293Z,1019.41
2017-11-11T11:13:31.284Z,1019.44
2017-11-11T11:14:31.274Z,1019.42
2017-11-11T11:15:31.265Z,1019.43
2017-11-11T11:16:31.258Z,1019.33
2017-11-11T11:17:31.247Z,1019.28
2017-11-11T11:18:31.236Z,1019.28
2017-11-11T11:19:31.228Z,1019.23
2017-11-11T11:20:31.217Z,1019.19
2017-11-11T11:21:31.208Z,1019.13
2017-11-11T11:22:31.198Z,1019.07
2017-11-11T11:23:31.200Z,1018.97
2017-11-11T11:24:31.181Z,1018.98
2017-11-11T11:25:31.175Z,1018.83
2017-11-11T11:26:31.164Z,1018.73
2017-11-11T11:27:31.152Z,1018.59
2017-11-11T11:28:31.144Z,1018.47
2017-11-11T11:29:31.134Z,1018.32
2017-11-11T11:30:31.125Z,1018.14
2017-11-11T11:31:31.117Z,1017.98
2017-11-11T11:32:31.108Z,1017.95
2017-11-11T11:33:31.097Z,1017.8
2017-11-11T11:34:31.089Z,1017.83
2017-11-11T11:35:31.082Z,1017.81
2017-11-11T11:36:31.072Z,1017.97
2017-11-11T11:37:31.065Z,1018.07
2017-11-11T11:38:31.054Z,1017.98
2017-11-11T11:39:31.047Z,1018.05
2017-11-11T11:40:31.037Z,1018.02
2017-11-11T11:41:31.030Z,1018.03
2017-11-11T11:42:31.020Z,1018.07
2017-11-11T11:43:31.019Z,1018.12
2017-11-11T11:44:31.002Z,1018.12
2017-11-11T11:45:30.994Z,1018.24
2017-11-11T11:46:30.987Z,1018.28
2017-11-11T11:47:30.978Z,1018.29
2017-11-11T11:48:30.970Z,1018.35
2017-11-11T11:49:30.960Z,1018.37
2017-11-11T11:50:30.954Z,1018.51
2017-11-11T11:51:30.942Z,1018.53
2017-11-11T11:52:30.934Z,1018.57
2017-11-11T11:53:30.927Z,1018.65
2017-11-11T11:54:30.925Z,1018.69
2017-11-11T11:55:30.907Z,1018.61
2017-11-11T11:56:30.899Z,1018.62
2017-11-11T11:57:30.890Z,1018.42
2017-11-11T11:58:30.883Z,1018.28
2017-11-11T11:59:30.875Z,1018.15
2017-11-11T12:00:30.872Z,1018.09
2017-11-11T12:01:30.857Z,1017.95
2017-11-11T12:02:30.852Z,1017.79
2017-11-11T12:03:30.839Z,1017.7
2017-11-11T12:04:30.830Z,1017.67
2017-11-11T12:05:30.821Z,1017.54
2017-11-11T12:06:30.813Z,1017.55
2017-11-11T12:07:30.806Z,1017.52
2017-11-11T12:08:30.797Z,1017.58